Time;durP1;ratioP1;P1;durP2;ratioP2;P2;SDS_P1;SDS_P2;PMS_P1;PMS_P2;Temp;Humidity;BMP_temperature;BMP_pressure;BME280_temperature;BME280_humidity;BME280_pressure;Samples;Min_cycle;Max_cycle;Signal;HPM_P1;HPM_P2
2021/10/27 00:00:28;;;;;;;0.50;0.50;;;;;;;3.09;62.08;99774.81;4903342;29;20484;-69
2021/10/27 00:02:53;;;;;;;0.50;0.50;;;;;;;3.06;62.07;99764.34;4887260;29;20080;-67
2021/10/27 00:05:19;;;;;;;0.50;0.50;;;;;;;3.06;61.90;99763.50;4919826;29;20059;-68
2021/10/27 00:07:45;;;;;;;0.50;0.50;;;;;;;3.06;62.11;99753.66;4919575;29;20091;-67
2021/10/27 00:10:12;;;;;;;0.40;0.40;;;;;;;3.05;62.25;99757.28;4901850;29;20122;-68
2021/10/27 00:12:38;;;;;;;0.50;0.50;;;;;;;3.05;62.09;99757.28;4919055;29;20174;-68
2021/10/27 00:15:06;;;;;;;0.50;0.50;;;;;;;3.05;62.32;99759.97;4883003;29;20111;-68
2021/10/27 00:17:36;;;;;;;0.50;0.50;;;;;;;3.05;62.37;99756.44;4902313;29;20056;-71
2021/10/27 00:20:04;;;;;;;0.50;0.50;;;;;;;3.03;62.22;99759.19;4902122;29;20089;-69
2021/10/27 00:22:30;;;;;;;0.50;0.50;;;;;;;2.98;62.57;99753.31;4885126;29;20067;-68
2021/10/27 00:24:56;;;;;;;0.50;0.50;;;;;;;2.97;62.67;99759.63;4901566;29;20068;-68
2021/10/27 00:27:22;;;;;;;0.50;0.50;;;;;;;2.95;62.70;99752.66;4917652;29;20136;-70
2021/10/27 00:29:48;;;;;;;0.50;0.50;;;;;;;2.95;62.89;99745.50;4915898;29;20147;-68
2021/10/27 00:32:14;;;;;;;0.47;0.47;;;;;;;2.94;62.82;99746.47;4917554;29;20146;-68
2021/10/27 00:34:40;;;;;;;0.50;0.50;;;;;;;2.92;63.20;99740.34;4885134;29;20139;-68
2021/10/27 00:37:06;;;;;;;0.50;0.50;;;;;;;2.93;62.82;99736.75;4900266;29;20063;-69
2021/10/27 00:39:33;;;;;;;0.47;0.47;;;;;;;2.91;63.06;99741.31;4915928;29;20136;-69
2021/10/27 00:41:59;;;;;;;0.50;0.50;;;;;;;2.88;63.09;99736.19;4915108;29;20115;-68
2021/10/27 00:44:26;;;;;;;0.47;0.47;;;;;;;2.88;63.15;99733.50;4898710;29;20063;-69
2021/10/27 00:47:21;;;;;;;0.45;0.45;;;;;;;2.84;63.34;99737.34;4915507;29;20076;-69
2021/10/27 00:49:47;;;;;;;0.50;0.50;;;;;;;2.82;63.37;99732.09;4905386;29;20059;-69
2021/10/27 00:52:15;;;;;;;0.50;0.50;;;;;;;2.82;63.37;99721.44;4915500;29;20084;-69
2021/10/27 00:54:43;;;;;;;0.50;0.50;;;;;;;2.81;63.59;99727.69;4898372;29;20207;-69
2021/10/27 00:57:10;;;;;;;0.50;0.50;;;;;;;2.81;63.51;99722.38;4898167;29;20068;-67
2021/10/27 00:59:41;;;;;;;0.50;0.50;;;;;;;2.77;63.67;99709.31;4882346;29;20505;-68
2021/10/27 01:02:07;;;;;;;0.50;0.50;;;;;;;2.80;63.48;99714.47;4898231;29;20167;-68
2021/10/27 01:04:34;;;;;;;0.50;0.50;;;;;;;2.78;63.49;99711.91;4915119;29;20059;-68
2021/10/27 01:07:00;;;;;;;0.50;0.50;;;;;;;2.78;63.95;99711.03;4898076;29;20131;-68
2021/10/27 01:09:26;;;;;;;0.50;0.50;;;;;;;2.72;64.13;99701.63;4915069;29;20094;-68
2021/10/27 01:11:52;;;;;;;0.43;0.43;;;;;;;2.73;63.93;99707.81;4915026;29;20087;-68
2021/10/27 01:14:18;;;;;;;0.50;0.50;;;;;;;2.70;64.05;99700.00;4866910;29;20090;-67
2021/10/27 01:16:48;;;;;;;0.40;0.40;;;;;;;2.65;64.13;99701.16;4897130;29;20520;-68
2021/10/27 01:19:14;;;;;;;0.50;0.50;;;;;;;2.63;64.49;99699.53;4898055;29;20058;-67
2021/10/27 01:21:41;;;;;;;0.50;0.50;;;;;;;2.60;64.46;99692.63;4915003;29;20174;-69
2021/10/27 01:24:07;;;;;;;0.40;0.40;;;;;;;2.61;64.67;99697.00;4898180;29;20067;-70
2021/10/27 01:26:34;;;;;;;0.50;0.50;;;;;;;2.60;64.62;99689.09;4897873;29;20119;-68
2021/10/27 01:29:00;;;;;;;0.40;0.40;;;;;;;2.63;64.71;99688.88;4915965;29;20177;-69
2021/10/27 01:31:26;;;;;;;0.50;0.50;;;;;;;2.63;64.78;99689.75;4900178;29;20060;-69
2021/10/27 01:33:53;;;;;;;0.40;0.40;;;;;;;2.62;64.68;99690.69;4900846;29;20421;-68
2021/10/27 01:36:20;;;;;;;0.50;0.50;;;;;;;2.64;64.46;99691.47;4917836;29;20066;-68
2021/10/27 01:38:47;;;;;;;0.50;0.50;;;;;;;2.63;64.86;99692.44;4885094;29;20068;-68
2021/10/27 01:41:13;;;;;;;0.40;0.40;;;;;;;2.61;64.76;99680.13;4898843;29;20048;-67
2021/10/27 01:43:52;;;;;;;0.50;0.50;;;;;;;2.64;64.72;99671.91;4897578;29;20059;-68
2021/10/27 01:46:30;;;;;;;0.50;0.50;;;;;;;2.62;65.01;99684.50;4914456;29;20397;-68
2021/10/27 01:48:57;;;;;;;0.50;0.50;;;;;;;2.61;64.38;99685.47;4897252;29;20192;-68
2021/10/27 01:51:23;;;;;;;0.40;0.40;;;;;;;2.62;64.71;99685.34;4913538;29;20060;-69
2021/10/27 01:53:48;;;;;;;0.50;0.50;;;;;;;2.59;65.12;99682.88;4897268;29;20151;-68
2021/10/27 01:56:15;;;;;;;0.50;0.50;;;;;;;2.60;65.35;99673.09;4897413;29;20149;-68
2021/10/27 01:58:41;;;;;;;0.50;0.50;;;;;;;2.57;65.49;99663.47;4897108;29;20064;-68
2021/10/27 02:01:08;;;;;;;0.40;0.40;;;;;;;2.56;65.46;99664.44;4914347;29;20147;-68
2021/10/27 02:03:33;;;;;;;0.40;0.40;;;;;;;2.54;65.30;99660.97;4881617;29;20128;-68
2021/10/27 02:05:59;;;;;;;0.40;0.40;;;;;;;2.56;65.47;99658.19;4895752;29;20082;-68
2021/10/27 02:08:25;;;;;;;0.45;0.45;;;;;;;2.59;65.41;99660.69;4914656;29;20052;-69
2021/10/27 02:10:51;;;;;;;0.40;0.40;;;;;;;2.57;65.60;99667.94;4881985;29;20052;-68
2021/10/27 02:13:17;;;;;;;0.40;0.40;;;;;;;2.55;65.46;99661.84;4881716;29;20063;-68
2021/10/27 02:15:43;;;;;;;0.50;0.50;;;;;;;2.52;65.13;99657.53;4897376;29;20052;-69
2021/10/27 02:18:09;;;;;;;0.50;0.50;;;;;;;2.53;65.87;99659.28;4897092;29;20056;-69
2021/10/27 02:20:35;;;;;;;0.50;0.50;;;;;;;2.54;65.74;99660.97;4896629;29;20409;-69
2021/10/27 02:23:01;;;;;;;0.50;0.50;;;;;;;2.53;65.97;99653.94;4896622;29;20142;-68
2021/10/27 02:25:27;;;;;;;0.40;0.40;;;;;;;2.53;66.09;99653.94;4913590;29;20059;-68
2021/10/27 02:27:52;;;;;;;0.40;0.40;;;;;;;2.51;65.66;99645.16;4914837;29;20146;-68
2021/10/27 02:30:19;;;;;;;0.50;0.50;;;;;;;2.50;65.92;99642.63;4915007;29;20052;-70
2021/10/27 02:32:45;;;;;;;0.43;0.43;;;;;;;2.46;65.93;99639.28;4884081;29;20115;-70
2021/10/27 02:35:11;;;;;;;0.40;0.40;;;;;;;2.43;66.37;99639.47;4915669;29;20056;-68
2021/10/27 02:37:37;;;;;;;0.50;0.50;;;;;;;2.40;66.13;99629.88;4915058;29;20496;-68
2021/10/27 02:40:04;;;;;;;0.50;0.50;;;;;;;2.43;66.13;99636.81;4896606;29;20555;-67
2021/10/27 02:42:30;;;;;;;0.50;0.50;;;;;;;2.40;66.45;99631.69;4881195;29;20082;-69
2021/10/27 02:44:56;;;;;;;0.50;0.50;;;;;;;2.39;66.44;99624.63;4896884;29;20489;-68
2021/10/27 02:47:22;;;;;;;0.50;0.50;;;;;;;2.32;67.15;99628.66;4914014;29;20055;-68
2021/10/27 02:49:47;;;;;;;0.50;0.50;;;;;;;2.36;66.70;99624.84;4896117;29;20072;-68
2021/10/27 02:52:15;;;;;;;0.50;0.50;;;;;;;2.36;66.80;99635.50;4896339;29;20080;-68
2021/10/27 02:54:41;;;;;;;0.50;0.50;;;;;;;2.34;67.09;99622.28;4913003;29;20416;-69
2021/10/27 02:57:06;;;;;;;0.50;0.50;;;;;;;2.33;67.06;99614.34;4896045;29;20484;-69
2021/10/27 02:59:32;;;;;;;0.50;0.50;;;;;;;2.34;67.34;99621.41;4896154;29;20134;-69
2021/10/27 03:01:58;;;;;;;0.50;0.50;;;;;;;2.33;66.95;99614.34;4895933;29;20059;-71
2021/10/27 03:04:24;;;;;;;0.50;0.50;;;;;;;2.34;67.17;99614.28;4864046;29;20055;-70
2021/10/27 03:06:50;;;;;;;0.50;0.50;;;;;;;2.34;67.17;99616.06;4896190;29;20056;-69
2021/10/27 03:09:16;;;;;;;0.50;0.50;;;;;;;2.33;67.30;99604.53;4913291;29;20056;-69
2021/10/27 03:11:42;;;;;;;0.50;0.50;;;;;;;2.31;67.02;99601.13;4913247;29;20066;-68
2021/10/27 03:14:08;;;;;;;0.50;0.50;;;;;;;2.28;67.30;99595.16;4895872;29;20044;-69
2021/10/27 03:16:33;;;;;;;0.50;0.50;;;;;;;2.22;67.40;99584.88;4895630;29;20505;-70
2021/10/27 03:18:59;;;;;;;0.50;0.50;;;;;;;2.25;67.65;99598.00;4895212;29;20044;-71
2021/10/27 03:21:25;;;;;;;0.50;0.50;;;;;;;2.23;67.95;99586.56;4895526;29;20473;-69
2021/10/27 03:23:51;;;;;;;0.50;0.50;;;;;;;2.17;68.11;99588.69;4864874;29;20082;-69
2021/10/27 03:26:17;;;;;;;0.50;0.50;;;;;;;2.19;67.79;99580.59;4895788;29;20508;-69
2021/10/27 03:28:43;;;;;;;0.50;0.50;;;;;;;2.12;68.50;99572.16;4912640;29;20108;-70
2021/10/27 03:31:09;;;;;;;0.50;0.50;;;;;;;2.14;68.15;99575.56;4895821;29;20052;-68
2021/10/27 03:33:35;;;;;;;0.50;0.50;;;;;;;2.12;68.01;99573.94;4912892;29;20409;-71
2021/10/27 03:36:01;;;;;;;0.40;0.40;;;;;;;2.07;68.60;99568.91;4894780;29;20051;-70
2021/10/27 03:38:27;;;;;;;0.50;0.50;;;;;;;2.03;68.75;99562.06;4913054;29;20105;-69
2021/10/27 03:40:53;;;;;;;0.40;0.40;;;;;;;1.98;68.88;99564.19;4896173;29;20088;-70
2021/10/27 03:43:19;;;;;;;0.50;0.50;;;;;;;1.92;69.37;99567.25;4896299;29;20551;-70
2021/10/27 03:45:45;;;;;;;0.50;0.50;;;;;;;1.87;69.67;99564.03;4880224;29;20078;-70
2021/10/27 03:48:11;;;;;;;0.50;0.50;;;;;;;1.86;69.60;99567.63;4880267;29;20536;-69
2021/10/27 03:50:37;;;;;;;0.50;0.50;;;;;;;1.83;69.55;99565.16;4880619;29;20115;-68
2021/10/27 03:53:03;;;;;;;0.50;0.50;;;;;;;1.79;70.17;99558.31;4879204;29;20060;-69
2021/10/27 03:55:29;;;;;;;0.52;0.52;;;;;;;1.76;69.94;99566.53;4880082;29;20155;-71
2021/10/27 03:57:58;;;;;;;0.50;0.50;;;;;;;1.75;69.90;99560.31;4880214;29;20146;-68
2021/10/27 04:00:25;;;;;;;0.50;0.50;;;;;;;1.71;70.27;99557.94;4895963;29;20473;-71
2021/10/27 04:02:51;;;;;;;0.50;0.50;;;;;;;1.67;70.25;99563.47;4896528;29;20044;-69
2021/10/27 04:05:17;;;;;;;0.50;0.50;;;;;;;1.66;70.61;99548.44;4916660;29;20060;-70
2021/10/27 04:07:53;;;;;;;0.50;0.50;;;;;;;1.63;70.73;99551.28;4900283;29;20687;-68
2021/10/27 04:10:19;;;;;;;0.50;0.50;;;;;;;1.62;70.85;99541.59;4880460;29;20064;-68
2021/10/27 04:12:45;;;;;;;0.50;0.50;;;;;;;1.61;70.98;99547.88;4878507;29;20515;-70
2021/10/27 04:15:14;;;;;;;0.50;0.50;;;;;;;1.57;71.12;99551.69;4916298;29;20493;-71
2021/10/27 04:17:41;;;;;;;0.50;0.50;;;;;;;1.61;71.07;99542.56;4916301;29;20128;-70
2021/10/27 04:20:09;;;;;;;0.50;0.50;;;;;;;1.61;71.25;99545.22;4899062;29;20091;-69
2021/10/27 04:22:37;;;;;;;0.40;0.40;;;;;;;1.60;70.97;99535.50;4898437;29;20091;-70
2021/10/27 04:25:04;;;;;;;0.50;0.50;;;;;;;1.59;71.29;99528.47;4898814;29;20086;-70
2021/10/27 04:27:30;;;;;;;0.50;0.50;;;;;;;1.58;71.44;99532.09;4915939;29;20059;-70
2021/10/27 04:30:00;;;;;;;0.50;0.50;;;;;;;1.63;71.50;99529.13;4915844;29;20060;-71
2021/10/27 04:32:25;;;;;;;0.50;0.50;;;;;;;1.67;71.28;99539.47;4898852;29;20056;-70
2021/10/27 04:34:51;;;;;;;0.50;0.50;;;;;;;1.75;70.94;99535.47;4914135;29;20564;-69
2021/10/27 04:37:18;;;;;;;0.50;0.50;;;;;;;1.74;71.28;99537.28;4898557;29;20067;-70
2021/10/27 04:39:45;;;;;;;0.50;0.50;;;;;;;1.80;70.62;99533.38;4882198;29;20074;-70
2021/10/27 04:42:11;;;;;;;0.50;0.50;;;;;;;1.88;70.65;99528.41;4882541;29;20056;-70
2021/10/27 04:44:36;;;;;;;0.50;0.50;;;;;;;1.90;70.20;99537.16;4883448;29;20067;-74
2021/10/27 04:47:03;;;;;;;0.50;0.50;;;;;;;1.96;70.54;99530.56;4884249;29;20564;-67
2021/10/27 04:49:30;;;;;;;0.50;0.50;;;;;;;2.02;69.72;99528.38;4915511;29;20139;-67
2021/10/27 04:51:56;;;;;;;0.50;0.50;;;;;;;2.06;69.95;99527.22;4897760;29;20067;-66
2021/10/27 04:54:22;;;;;;;0.50;0.50;;;;;;;2.10;69.64;99538.53;4898103;29;20095;-68
2021/10/27 04:56:48;;;;;;;0.50;0.50;;;;;;;2.16;69.55;99528.31;4915150;29;20056;-67
2021/10/27 04:59:14;;;;;;;0.50;0.50;;;;;;;2.20;69.19;99533.47;4898020;29;20112;-67
2021/10/27 05:01:43;;;;;;;0.50;0.50;;;;;;;2.26;69.23;99531.22;4915370;29;20146;-68
2021/10/27 05:04:09;;;;;;;0.50;0.50;;;;;;;2.29;69.24;99533.69;4915228;29;20140;-68
2021/10/27 05:06:35;;;;;;;0.50;0.50;;;;;;;2.37;68.59;99538.50;4914928;29;20199;-67
2021/10/27 05:09:02;;;;;;;0.50;0.50;;;;;;;2.41;68.62;99537.34;4914770;29;20163;-68
2021/10/27 05:11:28;;;;;;;0.50;0.50;;;;;;;2.48;68.09;99541.31;4882498;29;20111;-68
2021/10/27 05:13:54;;;;;;;0.50;0.50;;;;;;;2.53;68.22;99530.34;4881622;29;20056;-69
2021/10/27 05:16:19;;;;;;;0.50;0.50;;;;;;;2.51;67.99;99522.44;4881890;29;20056;-67
2021/10/27 05:18:45;;;;;;;0.50;0.50;;;;;;;2.51;68.12;99533.09;4915219;29;20059;-68
2021/10/27 05:21:11;;;;;;;0.50;0.50;;;;;;;2.51;68.13;99517.09;4882229;29;20470;-69
2021/10/27 05:23:38;;;;;;;0.50;0.50;;;;;;;2.57;67.84;99519.34;4897258;29;20171;-70
2021/10/27 05:26:04;;;;;;;0.50;0.50;;;;;;;2.62;67.84;99532.38;4878881;29;20075;-69
2021/10/27 05:28:30;;;;;;;0.50;0.50;;;;;;;2.57;67.83;99524.69;4894498;29;20457;-68
2021/10/27 05:30:56;;;;;;;0.55;0.55;;;;;;;2.63;67.69;99518.06;4914713;29;20064;-68
2021/10/27 05:33:21;;;;;;;0.50;0.50;;;;;;;2.64;67.50;99523.31;4866515;29;20497;-70
2021/10/27 05:35:47;;;;;;;0.50;0.50;;;;;;;2.74;67.40;99528.03;4881503;29;20056;-69
2021/10/27 05:38:13;;;;;;;0.50;0.50;;;;;;;2.72;67.63;99527.28;4897278;29;20059;-68
2021/10/27 05:40:39;;;;;;;0.50;0.50;;;;;;;2.80;67.36;99522.28;4897069;29;20481;-67
2021/10/27 05:43:10;;;;;;;0.50;0.50;;;;;;;2.76;67.37;99520.78;4898229;29;20067;-71
2021/10/27 05:45:36;;;;;;;0.50;0.50;;;;;;;2.78;67.22;99524.19;4868718;29;20060;-72
2021/10/27 05:48:03;;;;;;;0.50;0.50;;;;;;;2.86;66.95;99525.38;4864198;29;20220;-72
2021/10/27 05:50:41;;;;;;;0.50;0.50;;;;;;;2.89;66.98;99533.19;4878347;29;20047;-67
2021/10/27 05:57:56;;;;;;;0.50;0.50;;;;;;;2.99;67.14;99519.19;4874014;29;20059;-68
2021/10/27 06:00:22;;;;;;;0.50;0.50;;;;;;;3.05;66.46;99516.09;4858530;29;20424;-66
2021/10/27 06:02:48;;;;;;;0.50;0.50;;;;;;;3.10;66.37;99514.78;4901232;29;20071;-67
2021/10/27 06:05:14;;;;;;;0.50;0.50;;;;;;;3.10;66.52;99509.44;4908857;29;20052;-66
2021/10/27 06:07:40;;;;;;;0.50;0.50;;;;;;;3.06;66.63;99505.28;4897041;29;20628;-64
2021/10/27 06:10:06;;;;;;;0.50;0.50;;;;;;;3.13;66.35;99513.75;4886090;29;20543;-69
2021/10/27 06:12:34;;;;;;;0.50;0.50;;;;;;;3.19;66.32;99518.66;4898052;29;20053;-68
2021/10/27 06:15:01;;;;;;;0.50;0.50;;;;;;;3.25;66.10;99514.69;4900360;29;20052;-67
2021/10/27 06:17:27;;;;;;;0.50;0.50;;;;;;;3.29;66.04;99518.84;4895294;29;20139;-66
2021/10/27 06:19:54;;;;;;;0.50;0.50;;;;;;;3.38;65.71;99504.84;4895719;29;20139;-69
2021/10/27 06:22:21;;;;;;;0.50;0.50;;;;;;;3.48;65.68;99507.72;4894628;29;20059;-64
2021/10/27 06:24:48;;;;;;;0.50;0.50;;;;;;;3.53;65.33;99506.41;4881610;29;20071;-68
2021/10/27 06:27:14;;;;;;;0.50;0.50;;;;;;;3.58;65.21;99506.06;4897537;29;20051;-71
2021/10/27 06:29:44;;;;;;;0.50;0.50;;;;;;;3.49;65.23;99504.94;4881592;29;20056;-67
2021/10/27 06:34:54;;;;;;;0.50;0.50;;;;;;;3.51;65.35;99505.69;4868288;29;20053;-70
2021/10/27 06:47:47;;;;;;;0.50;0.50;;;;;;;3.80;64.02;99473.28;4879284;29;20072;-67
2021/10/27 06:50:14;;;;;;;0.50;0.50;;;;;;;3.86;64.19;99476.38;4864231;29;20520;-70
2021/10/27 06:52:39;;;;;;;0.50;0.50;;;;;;;3.83;64.42;99475.75;4883453;29;20048;-68
2021/10/27 06:55:06;;;;;;;0.50;0.50;;;;;;;3.83;64.83;99475.75;4895448;29;20059;-71
2021/10/27 06:57:33;;;;;;;0.50;0.50;;;;;;;3.91;64.20;99485.88;4895864;29;20117;-66
2021/10/27 07:00:13;;;;;;;0.50;0.50;;;;;;;3.87;64.32;99483.41;4874245;29;20065;-68
2021/10/27 07:16:16;;;;;;;0.60;0.60;;;;;;;4.24;63.99;99463.78;4894462;29;20060;-71
2021/10/27 07:18:42;;;;;;;0.50;0.50;;;;;;;4.27;63.79;99463.53;4883168;29;20124;-70
2021/10/27 07:21:08;;;;;;;0.50;0.50;;;;;;;4.26;63.55;99445.78;4879288;29;20105;-72
2021/10/27 07:23:37;;;;;;;0.50;0.50;;;;;;;4.31;63.76;99449.84;4861758;29;20075;-67
2021/10/27 07:26:03;;;;;;;0.50;0.50;;;;;;;4.40;63.35;99453.63;4878150;29;20428;-70
2021/10/27 07:28:30;;;;;;;0.50;0.50;;;;;;;4.46;63.20;99457.66;4894878;29;20357;-70
2021/10/27 07:30:58;;;;;;;0.50;0.50;;;;;;;4.38;63.65;99450.19;4865844;29;20056;-72
2021/10/27 07:33:26;;;;;;;0.50;0.50;;;;;;;4.37;63.94;99431.59;4873075;29;20432;-69
2021/10/27 07:41:43;;;;;;;0.60;0.60;;;;;;;4.51;63.25;99426.03;4836451;29;20049;-68
2021/10/27 07:44:15;;;;;;;0.50;0.50;;;;;;;4.43;63.58;99432.00;4844757;29;20067;-72
2021/10/27 07:46:43;;;;;;;0.50;0.50;;;;;;;4.37;63.85;99432.44;4899266;29;20505;-70
2021/10/27 07:49:09;;;;;;;0.50;0.50;;;;;;;4.50;63.54;99422.53;4895479;29;20063;-68
2021/10/27 07:51:36;;;;;;;0.50;0.50;;;;;;;4.54;63.51;99423.97;4894611;29;20963;-69
2021/10/27 07:54:03;;;;;;;0.60;0.60;;;;;;;4.69;63.27;99421.09;4855325;29;20179;-69
2021/10/27 07:56:31;;;;;;;0.60;0.60;;;;;;;4.81;62.40;99417.44;4876567;29;20056;-71
2021/10/27 07:58:58;;;;;;;0.50;0.50;;;;;;;5.02;62.43;99423.78;4868785;29;20060;-71
2021/10/27 08:01:24;;;;;;;0.50;0.50;;;;;;;5.01;62.12;99422.09;4883039;29;20057;-69
2021/10/27 08:03:50;;;;;;;0.50;0.50;;;;;;;4.93;62.50;99432.53;4878826;29;20354;-69
2021/10/27 08:06:16;;;;;;;0.50;0.50;;;;;;;4.87;62.62;99422.31;4899941;29;20068;-70
2021/10/27 08:08:42;;;;;;;0.52;0.52;;;;;;;5.14;61.98;99415.75;4896848;29;20056;-67
2021/10/27 08:11:09;;;;;;;0.60;0.60;;;;;;;5.09;62.31;99408.09;4881007;29;20070;-68
2021/10/27 08:13:35;;;;;;;0.60;0.60;;;;;;;5.30;61.75;99406.38;4880882;29;20481;-72
2021/10/27 08:16:02;;;;;;;0.52;0.52;;;;;;;5.32;61.36;99403.56;4898491;29;20498;-69
2021/10/27 08:18:28;;;;;;;0.60;0.60;;;;;;;5.44;61.26;99390.97;4897485;29;20067;-69
2021/10/27 08:20:54;;;;;;;0.60;0.60;;;;;;;5.46;60.80;99391.72;4880719;29;20148;-69
2021/10/27 08:23:21;;;;;;;0.60;0.60;;;;;;;5.46;61.19;99395.25;4897158;29;20095;-69
2021/10/27 08:25:55;;;;;;;0.50;0.50;;;;;;;5.36;61.11;99391.59;4890307;29;20057;-68
2021/10/27 08:28:28;;;;;;;0.60;0.60;;;;;;;5.52;60.91;99393.88;4894340;29;20269;-68
2021/10/27 08:31:08;;;;;;;0.50;0.50;;;;;;;5.33;61.92;99391.84;4880786;29;20102;-69
2021/10/27 08:33:44;;;;;;;0.60;0.52;;;;;;;5.46;61.71;99397.91;4896742;29;20048;-69
2021/10/27 08:36:11;;;;;;;0.50;0.50;;;;;;;5.47;61.70;99393.41;4882944;29;20064;-70
2021/10/27 08:38:37;;;;;;;0.50;0.50;;;;;;;5.31;61.83;99391.97;4897805;29;20048;-68
2021/10/27 08:41:04;;;;;;;0.50;0.50;;;;;;;5.28;62.20;99392.22;4897460;29;20071;-68
2021/10/27 08:43:31;;;;;;;0.50;0.50;;;;;;;5.33;62.48;99391.84;4896981;29;20049;-67
2021/10/27 08:45:58;;;;;;;0.50;0.50;;;;;;;5.38;62.23;99386.97;4865202;29;20076;-71
2021/10/27 08:48:25;;;;;;;0.50;0.50;;;;;;;5.42;61.87;99383.06;4884666;29;20481;-67
2021/10/27 08:50:51;;;;;;;0.50;0.50;;;;;;;5.46;61.81;99384.50;4893493;29;20105;-70
2021/10/27 08:53:21;;;;;;;0.50;0.50;;;;;;;5.56;61.75;99390.00;4894833;29;20462;-72
2021/10/27 08:55:49;;;;;;;0.50;0.50;;;;;;;5.39;62.36;99382.47;4892630;29;20442;-66
2021/10/27 08:58:22;;;;;;;0.50;0.50;;;;;;;5.41;62.35;99373.34;4912419;29;20052;-71
2021/10/27 09:03:52;;;;;;;0.60;0.60;;;;;;;5.52;62.45;99372.41;4898989;29;20521;-69
2021/10/27 09:40:09;;;;;;;0.50;0.50;;;;;;;5.76;62.44;99370.41;4900808;29;20074;-66
2021/10/27 09:56:21;;;;;;;0.50;0.50;;;;;;;6.07;61.40;99359.84;4871973;29;20064;-70
2021/10/27 10:04:26;;;;;;;0.50;0.50;;;;;;;5.99;61.88;99357.78;4894508;29;20071;-67
2021/10/27 10:07:02;;;;;;;0.50;0.50;;;;;;;5.91;62.48;99360.22;4879883;29;20741;-66
2021/10/27 10:09:28;;;;;;;0.50;0.50;;;;;;;5.91;62.40;99346.81;4889637;29;20080;-70
2021/10/27 10:11:55;;;;;;;0.50;0.50;;;;;;;5.94;62.99;99357.31;4882756;29;20112;-70
2021/10/27 10:14:22;;;;;;;0.50;0.50;;;;;;;5.99;62.11;99357.78;4864531;29;20060;-72
2021/10/27 10:16:55;;;;;;;0.40;0.40;;;;;;;5.91;62.77;99354.84;4882546;29;20175;-71
2021/10/27 10:19:23;;;;;;;0.50;0.50;;;;;;;5.86;62.70;99338.31;4894424;29;20153;-72
2021/10/27 10:21:51;;;;;;;0.50;0.50;;;;;;;5.86;63.10;99343.66;4888809;29;20509;-70
2021/10/27 10:24:18;;;;;;;0.50;0.50;;;;;;;5.92;62.69;99353.91;4878603;29;20075;-72
2021/10/27 10:26:48;;;;;;;0.50;0.50;;;;;;;5.90;63.26;99342.44;4896071;29;20061;-69
2021/10/27 10:29:46;;;;;;;0.50;0.50;;;;;;;6.08;62.46;99347.25;4874661;29;20067;-70
2021/10/27 10:32:18;;;;;;;0.50;0.50;;;;;;;5.92;63.41;99342.28;4889367;29;20056;-70
2021/10/27 10:34:49;;;;;;;0.40;0.40;;;;;;;5.83;63.47;99329.66;4879663;29;20583;-71
2021/10/27 11:11:51;;;;;;;0.50;0.50;;;;;;;5.96;64.35;99333.91;4898594;29;20553;-70
2021/10/27 11:22:30;;;;;;;0.50;0.50;;;;;;;6.36;63.50;99335.88;4897635;29;20210;-69
2021/10/27 11:25:05;;;;;;;0.50;0.50;;;;;;;6.50;63.33;99340.88;4891939;29;20481;-67
2021/10/27 11:41:49;;;;;;;0.40;0.40;;;;;;;6.11;64.87;99363.09;4873619;29;20374;-67
2021/10/27 11:44:44;;;;;;;0.45;0.45;;;;;;;6.04;65.07;99352.88;4863045;29;20145;-69
2021/10/27 11:47:10;;;;;;;0.40;0.40;;;;;;;6.12;65.11;99359.44;4889324;29;20127;-68
2021/10/27 11:49:39;;;;;;;0.40;0.40;;;;;;;6.24;64.51;99363.75;4862404;29;20064;-66
2021/10/27 11:52:06;;;;;;;0.50;0.50;;;;;;;6.20;64.68;99367.69;4867070;29;20482;-74
2021/10/27 11:54:34;;;;;;;0.50;0.50;;;;;;;6.18;64.56;99365.13;4863995;29;20510;-68
2021/10/27 11:57:04;;;;;;;0.40;0.40;;;;;;;6.11;64.93;99358.59;4873753;29;20056;-68
2021/10/27 11:59:46;;;;;;;0.40;0.40;;;;;;;6.15;65.07;99353.81;4846510;29;20068;-67
2021/10/27 12:02:14;;;;;;;0.50;0.50;;;;;;;6.27;64.94;99358.13;4894276;29;20495;-69
2021/10/27 12:04:41;;;;;;;0.40;0.40;;;;;;;6.27;64.69;99360.81;4873460;29;20065;-67
2021/10/27 12:09:48;;;;;;;0.40;0.40;;;;;;;6.28;64.64;99365.19;4886656;29;20057;-67
2021/10/27 12:12:34;;;;;;;0.50;0.50;;;;;;;6.33;64.63;99365.66;4874787;29;20095;-69
2021/10/27 12:17:59;;;;;;;0.40;0.40;;;;;;;6.18;64.87;99364.25;4875219;29;20163;-68
2021/10/27 12:20:57;;;;;;;0.47;0.47;;;;;;;6.22;64.62;99357.69;4870478;29;20057;-70
2021/10/27 12:23:26;;;;;;;0.50;0.50;;;;;;;6.18;65.03;99361.56;4862791;29;20057;-69
2021/10/27 12:26:11;;;;;;;0.50;0.50;;;;;;;6.24;65.04;99358.38;4893131;29;20064;-69
2021/10/27 12:28:37;;;;;;;0.50;0.50;;;;;;;6.25;65.21;99370.81;4897454;29;20505;-67
2021/10/27 12:31:25;;;;;;;0.50;0.50;;;;;;;6.34;65.26;99375.41;4869727;29;20506;-69
2021/10/27 12:33:51;;;;;;;0.40;0.40;;;;;;;6.40;64.96;99368.66;4895325;29;20529;-69
2021/10/27 12:36:29;;;;;;;0.40;0.40;;;;;;;6.33;64.74;99379.09;4862108;29;20060;-69
2021/10/27 12:40:08;;;;;;;0.40;0.40;;;;;;;6.22;65.07;99371.94;4916702;29;20120;-69
2021/10/27 12:42:08;;;;;;;0.50;0.50;;;;;;;6.32;65.23;99379.19;4904053;29;20059;-69
2021/10/27 12:44:54;;;;;;;0.40;0.40;;;;;;;6.37;65.42;99387.72;4901496;29;20079;-68
2021/10/27 12:47:25;;;;;;;0.40;0.40;;;;;;;6.25;65.45;99381.53;4900252;29;20055;-70
2021/10/27 12:50:12;;;;;;;0.40;0.40;;;;;;;6.26;65.63;99384.13;4934341;29;20110;-69
2021/10/27 12:52:51;;;;;;;0.40;0.40;;;;;;;6.27;65.80;99395.69;4885870;29;20532;-69
2021/10/27 12:55:32;;;;;;;0.40;0.40;;;;;;;6.21;66.10;99393.53;4918052;29;20056;-69
2021/10/27 12:58:12;;;;;;;0.40;0.40;;;;;;;6.18;65.96;99391.09;4901730;29;20170;-69
2021/10/27 13:00:52;;;;;;;0.40;0.40;;;;;;;6.21;66.14;99402.44;4901769;29;20158;-68
2021/10/27 13:17:27;;;;;;;0.40;0.40;;;;;;;6.04;67.34;99428.03;4902420;29;20063;-69
2021/10/27 13:29:43;;;;;;;0.40;0.40;;;;;;;5.95;68.52;99452.91;4916996;29;20091;-69
2021/10/27 13:32:15;;;;;;;0.40;0.40;;;;;;;5.97;68.70;99452.81;4886050;29;20170;-69
2021/10/27 13:34:42;;;;;;;0.40;0.40;;;;;;;5.95;68.92;99447.56;4917412;29;20488;-69
2021/10/27 13:37:08;;;;;;;0.40;0.40;;;;;;;5.97;68.30;99442.06;4916464;29;20453;-69
2021/10/27 13:39:35;;;;;;;0.40;0.40;;;;;;;5.97;68.90;99447.44;4901439;29;20064;-70
2021/10/27 13:42:06;;;;;;;0.40;0.40;;;;;;;5.95;68.84;99450.22;4901640;29;20055;-69
2021/10/27 13:44:39;;;;;;;0.40;0.40;;;;;;;6.04;68.86;99443.28;4902369;29;20067;-69
2021/10/27 13:49:58;;;;;;;0.40;0.40;;;;;;;5.96;69.08;99451.97;4934029;29;20063;-69
2021/10/27 14:06:07;;;;;;;0.40;0.40;;;;;;;5.75;70.59;99459.06;4903555;29;20070;-70
2021/10/27 14:40:17;;;;;;;0.40;0.40;;;;;;;5.40;74.44;99478.81;4933451;29;20055;-67
2021/10/27 15:21:18;;;;;;;0.40;0.40;;;;;;;5.55;73.48;99501.72;4916522;29;20513;-69
2021/10/27 15:42:46;;;;;;;0.40;0.40;;;;;;;5.51;73.85;99500.25;4810577;29;20571;-70
2021/10/27 15:52:54;;;;;;;0.40;0.40;;;;;;;5.45;74.44;99511.50;4896996;29;20052;-70
2021/10/27 15:55:20;;;;;;;0.40;0.40;;;;;;;5.46;74.28;99507.00;4880539;29;20067;-70
2021/10/27 15:57:46;;;;;;;0.40;0.40;;;;;;;5.50;74.22;99514.66;4895925;29;20056;-70
2021/10/27 16:00:12;;;;;;;0.40;0.40;;;;;;;5.48;74.87;99511.22;4852013;29;20052;-69
2021/10/27 16:02:38;;;;;;;0.40;0.40;;;;;;;5.48;74.84;99511.22;4853281;29;20052;-69
2021/10/27 16:05:06;;;;;;;0.40;0.40;;;;;;;5.43;74.89;99515.28;4884695;29;20385;-69
2021/10/27 16:07:34;;;;;;;0.40;0.40;;;;;;;5.46;74.86;99507.84;4899034;29;20064;-67
2021/10/27 16:10:12;;;;;;;0.40;0.40;;;;;;;5.46;75.06;99499.78;4882520;29;20055;-67
2021/10/27 16:12:38;;;;;;;0.40;0.40;;;;;;;5.46;75.21;99507.00;4870313;29;20163;-67
2021/10/27 16:15:12;;;;;;;0.40;0.40;;;;;;;5.49;75.64;99501.38;4899384;29;20076;-66
2021/10/27 16:17:39;;;;;;;;;;;;;;;5.48;75.92;99495.16;4900240;29;20139;-66
2021/10/27 16:20:05;;;;;;;0.40;0.40;;;;;;;5.45;75.90;99490.06;4929120;29;20435;-65
2021/10/27 16:22:31;;;;;;;0.40;0.40;;;;;;;5.49;75.97;99491.50;4878126;29;20412;-66
2021/10/27 16:24:57;;;;;;;0.40;0.40;;;;;;;5.47;76.05;99497.97;4868396;29;20096;-67
2021/10/27 16:27:23;;;;;;;0.40;0.40;;;;;;;5.46;76.34;99507.84;4868405;29;20057;-67
2021/10/27 16:29:49;;;;;;;0.40;0.40;;;;;;;5.48;76.34;99505.88;4899114;29;20508;-68
2021/10/27 16:32:15;;;;;;;0.40;0.40;;;;;;;5.42;76.47;99514.41;4899096;29;20044;-66
2021/10/27 16:34:41;;;;;;;0.40;0.40;;;;;;;5.45;76.92;99522.22;4882914;29;20059;-67
2021/10/27 16:37:07;;;;;;;0.40;0.40;;;;;;;5.48;76.64;99516.59;4898865;29;20100;-65
2021/10/27 16:39:33;;;;;;;0.40;0.40;;;;;;;5.52;76.27;99517.19;4899141;29;20477;-68